createdAt,value
2018-05-18T00:01:22.347Z,2.63
2018-05-18T00:03:51.198Z,2.67
2018-05-18T00:06:19.263Z,3.63
2018-05-18T00:08:47.302Z,3.30
2018-05-18T00:11:15.435Z,3.30
2018-05-18T00:13:44.233Z,3.47
2018-05-18T00:16:13.045Z,3.73
2018-05-18T00:18:41.105Z,2.83
2018-05-18T00:21:09.947Z,2.83
2018-05-18T00:23:38.003Z,3.20
2018-05-18T00:26:06.087Z,3.20
2018-05-18T00:28:34.150Z,3.93
2018-05-18T00:31:02.220Z,4.20
2018-05-18T00:33:30.321Z,4.30
2018-05-18T00:35:58.389Z,3.77
2018-05-18T00:38:26.462Z,3.90
2018-05-18T00:40:54.534Z,3.50
2018-05-18T00:43:22.618Z,3.80
2018-05-18T00:45:50.694Z,3.23
2018-05-18T00:48:18.762Z,3.37
2018-05-18T00:50:46.838Z,3.60
2018-05-18T00:53:14.989Z,4.03
2018-05-18T00:55:54.758Z,3.53
2018-05-18T00:58:22.858Z,3.93
2018-05-18T01:00:50.930Z,3.10
2018-05-18T01:03:19.756Z,3.50
2018-05-18T01:05:47.865Z,3.90
2018-05-18T01:08:15.931Z,3.30
2018-05-18T01:10:44.027Z,3.77
2018-05-18T01:13:12.194Z,3.80
2018-05-18T01:15:40.249Z,3.63
2018-05-18T01:18:08.326Z,3.77
2018-05-18T01:20:36.422Z,3.73
2018-05-18T01:23:04.492Z,4.30
2018-05-18T01:25:32.571Z,4.47
2018-05-18T01:28:01.422Z,4.70
2018-05-18T01:30:30.606Z,4.67
2018-05-18T01:32:58.685Z,4.70
2018-05-18T01:35:26.753Z,4.37
2018-05-18T01:37:54.818Z,5.33
2018-05-18T01:40:22.902Z,4.27
2018-05-18T01:42:51.725Z,5.00
2018-05-18T01:45:19.797Z,5.57
2018-05-18T01:47:47.886Z,5.50
2018-05-18T01:50:16.726Z,5.30
2018-05-18T01:52:44.794Z,4.73
2018-05-18T01:55:12.857Z,4.70
2018-05-18T01:57:40.930Z,4.97
2018-05-18T02:00:12.988Z,4.30
2018-05-18T02:02:41.067Z,4.20
2018-05-18T02:05:09.142Z,4.30
2018-05-18T02:07:37.214Z,4.20
2018-05-18T02:10:05.296Z,4.10
2018-05-18T02:12:33.356Z,3.90
2018-05-18T02:15:01.416Z,4.57
2018-05-18T02:17:35.291Z,3.83
2018-05-18T02:20:03.329Z,4.30
2018-05-18T02:22:31.366Z,4.60
2018-05-18T02:24:59.397Z,4.40
2018-05-18T02:27:27.459Z,4.63
2018-05-18T02:29:55.503Z,4.27
2018-05-18T02:32:23.551Z,4.53
2018-05-18T02:34:51.586Z,5.13
2018-05-18T02:37:19.638Z,4.73
2018-05-18T02:39:48.448Z,5.00
2018-05-18T02:42:16.482Z,4.57
2018-05-18T02:44:44.531Z,4.53
2018-05-18T02:47:12.561Z,4.33
2018-05-18T02:49:40.620Z,4.77
2018-05-18T02:52:08.653Z,4.30
2018-05-18T02:54:36.694Z,4.30
2018-05-18T02:57:04.754Z,4.87
2018-05-18T02:59:32.798Z,5.07
2018-05-18T03:02:00.851Z,4.40
2018-05-18T03:04:28.931Z,4.47
2018-05-18T03:06:56.973Z,4.50
2018-05-18T03:09:25.015Z,3.43
2018-05-18T03:11:53.087Z,4.00
2018-05-18T03:14:21.910Z,3.90
2018-05-18T03:16:49.954Z,3.50
2018-05-18T03:19:18.010Z,3.80
2018-05-18T03:21:46.071Z,4.30
2018-05-18T03:24:14.127Z,4.30
2018-05-18T03:26:42.158Z,4.17
2018-05-18T03:29:10.286Z,4.13
2018-05-18T03:31:38.338Z,4.53
2018-05-18T03:34:06.427Z,4.77
2018-05-18T03:36:34.477Z,3.87
2018-05-18T03:39:02.536Z,4.10
2018-05-18T03:41:30.577Z,4.50
2018-05-18T03:43:58.630Z,4.93
2018-05-18T03:46:26.681Z,4.10
2018-05-18T03:48:54.728Z,4.83
2018-05-18T03:51:22.770Z,5.27
2018-05-18T03:54:02.666Z,5.17
2018-05-18T03:56:30.737Z,3.50
2018-05-18T03:58:58.818Z,4.13
2018-05-18T04:01:38.718Z,4.70
2018-05-18T04:04:20.718Z,4.43
2018-05-18T04:07:00.642Z,4.27
2018-05-18T04:09:28.702Z,4.10
2018-05-18T04:11:56.747Z,3.17
2018-05-18T04:14:24.785Z,3.10
2018-05-18T04:16:52.870Z,4.57
2018-05-18T04:19:20.914Z,4.20
2018-05-18T04:21:48.962Z,4.33
2018-05-18T04:24:17.017Z,4.23
2018-05-18T04:26:45.067Z,4.63
2018-05-18T04:29:13.127Z,4.87
2018-05-18T04:31:41.183Z,5.03
2018-05-18T04:34:09.989Z,4.80
2018-05-18T04:36:38.034Z,5.70
2018-05-18T04:39:06.873Z,5.20
2018-05-18T04:41:34.926Z,4.27
2018-05-18T04:44:02.982Z,4.63
2018-05-18T04:46:31.042Z,4.60
2018-05-18T04:48:59.094Z,4.77
2018-05-18T04:51:27.135Z,5.17
2018-05-18T04:53:55.962Z,5.13
2018-05-18T04:56:24.005Z,5.30
2018-05-18T04:58:52.060Z,5.10
2018-05-18T05:01:32.830Z,4.80
2018-05-18T05:04:00.893Z,4.53
2018-05-18T05:06:28.934Z,4.87
2018-05-18T05:08:57.762Z,5.40
2018-05-18T05:11:25.797Z,4.73
2018-05-18T05:13:54.605Z,5.13
2018-05-18T05:16:22.657Z,5.77
2018-05-18T05:18:50.710Z,4.70
2018-05-18T05:21:18.755Z,5.13
2018-05-18T05:23:46.855Z,5.73
2018-05-18T05:26:14.878Z,5.63
2018-05-18T05:28:42.924Z,5.63
2018-05-18T05:31:10.982Z,5.30
2018-05-18T05:33:39.045Z,5.20
2018-05-18T05:36:07.085Z,5.53
2018-05-18T05:38:35.141Z,5.73
2018-05-18T05:41:13.047Z,6.13
2018-05-18T05:43:44.225Z,5.60
2018-05-18T05:46:12.285Z,5.20
2018-05-18T05:48:40.326Z,5.67
2018-05-18T05:51:09.370Z,4.47
2018-05-18T05:53:37.424Z,5.10
2018-05-18T05:56:11.330Z,5.90
2018-05-18T05:58:39.390Z,5.60
2018-05-18T06:01:07.434Z,4.70
2018-05-18T06:03:37.390Z,4.40
2018-05-18T06:06:05.452Z,5.27
2018-05-18T06:08:33.494Z,5.63
2018-05-18T06:11:03.454Z,5.60
2018-05-18T06:13:37.373Z,5.37
2018-05-18T06:16:05.450Z,4.97
2018-05-18T06:18:39.362Z,4.53
2018-05-18T06:21:07.437Z,5.47
2018-05-18T06:23:35.485Z,4.80
2018-05-18T06:26:03.533Z,5.33
2018-05-18T06:28:31.604Z,5.80
2018-05-18T06:30:59.659Z,5.70
2018-05-18T06:33:36.766Z,4.93
2018-05-18T06:36:04.834Z,5.43
2018-05-18T06:38:32.874Z,5.93
2018-05-18T06:41:00.918Z,5.93
2018-05-18T06:43:32.986Z,6.30
2018-05-18T06:46:01.025Z,6.60
2018-05-18T06:48:29.079Z,6.93
2018-05-18T06:51:03.942Z,5.93
2018-05-18T06:53:31.994Z,5.40
2018-05-18T06:56:00.047Z,6.10
2018-05-18T06:58:28.106Z,5.90
2018-05-18T07:01:00.242Z,5.80
2018-05-18T07:03:28.282Z,5.20
2018-05-18T07:05:56.329Z,6.53
2018-05-18T07:08:24.383Z,6.03
2018-05-18T07:10:52.426Z,6.37
2018-05-18T07:13:20.470Z,7.67
2018-05-18T07:15:55.406Z,6.47
2018-05-18T07:18:23.442Z,7.10
2018-05-18T07:20:51.501Z,7.33
2018-05-18T07:23:20.325Z,7.13
2018-05-18T07:25:53.266Z,6.60
2018-05-18T07:28:21.385Z,7.93
2018-05-18T07:30:49.434Z,7.13
2018-05-18T07:33:17.482Z,6.90
2018-05-18T07:35:46.297Z,6.93
2018-05-18T07:38:14.377Z,8.30
2018-05-18T07:40:42.405Z,7.47
2018-05-18T07:43:10.477Z,7.50
2018-05-18T07:45:41.507Z,7.37
2018-05-18T07:48:12.658Z,7.67
2018-05-18T07:51:02.346Z,7.63
2018-05-18T07:53:30.500Z,6.90
2018-05-18T07:56:00.542Z,8.83
2018-05-18T07:58:28.585Z,8.17
2018-05-18T08:00:56.662Z,8.03
2018-05-18T08:03:24.727Z,8.13
2018-05-18T08:05:55.003Z,7.70
2018-05-18T08:08:23.085Z,8.70
2018-05-18T08:10:51.158Z,7.50
2018-05-18T08:13:19.250Z,7.23
2018-05-18T08:15:47.319Z,8.13
2018-05-18T08:18:15.431Z,7.50
2018-05-18T08:20:44.318Z,7.90
2018-05-18T08:23:13.334Z,7.17
2018-05-18T08:25:42.157Z,6.97
2018-05-18T08:28:10.225Z,7.73
2018-05-18T08:30:49.969Z,8.73
2018-05-18T08:33:18.098Z,6.87
2018-05-18T08:35:46.162Z,7.73
2018-05-18T08:38:14.271Z,7.93
2018-05-18T08:40:43.210Z,8.23
2018-05-18T08:43:11.285Z,7.93
2018-05-18T08:45:39.362Z,8.17
2018-05-18T08:48:07.446Z,8.40
2018-05-18T08:50:35.506Z,8.20
2018-05-18T08:53:03.577Z,8.67
2018-05-18T08:55:31.645Z,8.50
2018-05-18T08:57:59.711Z,7.63
2018-05-18T09:00:31.632Z,8.17
2018-05-18T09:03:00.470Z,9.30
2018-05-18T09:05:28.552Z,8.13
2018-05-18T09:07:56.614Z,9.10
2018-05-18T09:10:24.849Z,8.40
2018-05-18T09:12:52.914Z,8.00
2018-05-18T09:15:20.988Z,8.43
2018-05-18T09:17:49.065Z,8.30
2018-05-18T09:20:17.109Z,8.07
2018-05-18T09:22:45.158Z,8.33
2018-05-18T09:25:13.239Z,8.00
2018-05-18T09:27:41.282Z,8.30
2018-05-18T09:30:09.335Z,8.27
2018-05-18T09:32:37.378Z,9.03
2018-05-18T09:35:05.426Z,9.17
2018-05-18T09:37:33.479Z,10.33
2018-05-18T09:40:01.527Z,9.20
2018-05-18T09:42:29.609Z,8.47
2018-05-18T09:44:59.698Z,9.20
2018-05-18T09:47:28.493Z,8.93
2018-05-18T09:49:56.577Z,8.50
2018-05-18T09:52:24.638Z,9.57
2018-05-18T09:54:57.654Z,9.97
2018-05-18T09:57:25.546Z,7.83
2018-05-18T09:59:53.621Z,9.83
2018-05-18T10:02:21.664Z,8.90
2018-05-18T10:04:49.709Z,9.60
2018-05-18T10:07:18.534Z,10.43
2018-05-18T10:09:46.585Z,8.23
2018-05-18T10:12:14.646Z,10.63
2018-05-18T10:14:42.689Z,9.83
2018-05-18T10:17:10.730Z,9.67
2018-05-18T10:20:00.479Z,8.73
2018-05-18T10:22:28.539Z,8.77
2018-05-18T10:24:56.593Z,8.77
2018-05-18T10:30:04.322Z,9.47
2018-05-18T10:32:32.373Z,9.50
2018-05-18T10:35:00.425Z,9.20
2018-05-18T10:37:29.435Z,10.80
2018-05-18T10:39:57.482Z,8.70
2018-05-18T10:42:25.538Z,8.47
2018-05-18T10:44:53.638Z,9.30
2018-05-18T10:47:37.638Z,9.53
2018-05-18T10:50:05.697Z,8.80
2018-05-18T10:52:34.506Z,9.63
2018-05-18T10:55:02.578Z,9.90
2018-05-18T10:57:30.641Z,8.33
2018-05-18T10:59:58.696Z,8.70
2018-05-18T11:02:26.806Z,9.40
2018-05-18T11:04:54.834Z,9.03
2018-05-18T11:07:23.815Z,9.67
2018-05-18T11:09:51.870Z,9.57
2018-05-18T11:12:19.918Z,10.03
2018-05-18T11:14:57.824Z,9.60
2018-05-18T11:17:25.885Z,9.67
2018-05-18T11:19:53.959Z,8.37
2018-05-18T11:22:21.993Z,10.50
2018-05-18T11:24:57.828Z,10.10
2018-05-18T11:27:25.882Z,10.60
2018-05-18T11:29:53.930Z,10.60
2018-05-18T11:32:21.977Z,10.13
2018-05-18T11:34:50.030Z,9.90
2018-05-18T11:37:18.882Z,10.97
2018-05-18T11:39:47.790Z,9.27
2018-05-18T11:42:15.894Z,9.40
2018-05-18T11:44:51.598Z,8.57
2018-05-18T11:47:19.648Z,9.50
2018-05-18T11:49:47.685Z,9.50
2018-05-18T11:52:16.522Z,9.80
2018-05-18T11:54:44.568Z,10.43
2018-05-18T11:57:12.610Z,10.60
2018-05-18T11:59:40.677Z,10.03
2018-05-18T12:02:08.719Z,9.33
2018-05-18T12:04:36.826Z,8.87
2018-05-18T12:07:04.873Z,10.70
2018-05-18T12:09:32.914Z,9.13
2018-05-18T12:12:00.978Z,9.10
2018-05-18T12:14:29.022Z,8.83
2018-05-18T12:16:57.847Z,9.30
2018-05-18T12:19:25.909Z,9.23
2018-05-18T12:22:06.765Z,10.90
2018-05-18T12:24:35.597Z,10.17
2018-05-18T12:27:03.662Z,9.50
2018-05-18T12:29:31.734Z,9.17
2018-05-18T12:31:59.778Z,8.77
2018-05-18T12:34:27.833Z,8.13
2018-05-18T12:36:56.650Z,8.37
2018-05-18T12:39:24.737Z,7.30
2018-05-18T12:41:52.787Z,8.30
2018-05-18T12:44:20.845Z,8.63
2018-05-18T12:46:48.910Z,8.57
2018-05-18T12:49:16.961Z,9.53
2018-05-18T12:51:45.016Z,8.90
2018-05-18T12:54:13.073Z,9.63
2018-05-18T12:56:55.766Z,8.80
2018-05-18T12:59:23.889Z,9.93
2018-05-18T13:01:51.866Z,9.37
2018-05-18T13:04:19.921Z,9.23
2018-05-18T13:06:47.970Z,9.13
2018-05-18T13:09:16.786Z,8.53
2018-05-18T13:11:55.599Z,9.33
2018-05-18T13:14:23.658Z,9.97
2018-05-18T13:16:51.742Z,9.30
2018-05-18T13:19:19.838Z,9.27
2018-05-18T13:21:47.882Z,9.33
2018-05-18T13:24:15.955Z,9.63
2018-05-18T13:26:48.986Z,10.50
2018-05-18T13:29:17.045Z,9.37
2018-05-18T13:31:45.117Z,8.93
2018-05-18T13:34:13.150Z,8.70
2018-05-18T13:36:41.222Z,10.10
2018-05-18T13:39:21.277Z,9.80
2018-05-18T13:41:49.354Z,10.30
2018-05-18T13:44:17.397Z,9.30
2018-05-18T13:46:45.527Z,10.43
2018-05-18T13:49:13.603Z,10.10
2018-05-18T13:51:41.705Z,9.33
2018-05-18T13:54:09.709Z,9.63
2018-05-18T13:56:37.781Z,10.53
2018-05-18T13:59:05.867Z,10.33
2018-05-18T14:01:33.924Z,10.07
2018-05-18T14:04:01.966Z,8.70
2018-05-18T14:06:30.015Z,9.23
2018-05-18T14:08:58.077Z,8.20
2018-05-18T14:11:26.126Z,8.07
2018-05-18T14:13:54.170Z,8.30
2018-05-18T14:16:27.323Z,8.83
2018-05-18T14:18:55.407Z,9.67
2018-05-18T14:21:25.301Z,8.60
2018-05-18T14:23:53.361Z,8.63
2018-05-18T14:26:21.470Z,8.93
2018-05-18T14:28:49.490Z,10.10
2018-05-18T14:31:17.546Z,9.50
2018-05-18T14:33:45.612Z,9.13
2018-05-18T14:36:13.722Z,9.17
2018-05-18T14:38:41.814Z,9.33
2018-05-18T14:41:09.872Z,8.37
2018-05-18T14:43:37.918Z,7.97
2018-05-18T14:46:23.781Z,9.90
2018-05-18T14:48:51.829Z,8.30
2018-05-18T14:51:25.530Z,8.50
2018-05-18T14:53:53.586Z,7.97
2018-05-18T14:56:21.629Z,7.67
2018-05-18T14:58:49.702Z,8.47
2018-05-18T15:01:21.805Z,8.67
2018-05-18T15:03:49.881Z,7.97
2018-05-18T15:06:17.958Z,9.00
2018-05-18T15:08:46.006Z,9.17
2018-05-18T15:11:15.012Z,8.10
2018-05-18T15:13:43.074Z,7.73
2018-05-18T15:16:11.111Z,8.83
2018-05-18T15:18:39.166Z,8.23
2018-05-18T15:21:07.209Z,8.40
2018-05-18T15:23:36.017Z,8.03
2018-05-18T15:26:04.066Z,8.17
2018-05-18T15:28:32.126Z,8.57
2018-05-18T15:31:00.170Z,8.33
2018-05-18T15:33:28.243Z,8.67
2018-05-18T15:36:05.970Z,8.30
2018-05-18T15:38:34.023Z,7.57
2018-05-18T15:41:02.082Z,7.73
2018-05-18T15:43:30.178Z,8.83
2018-05-18T15:45:58.249Z,8.10
2018-05-18T15:48:26.329Z,7.53
2018-05-18T15:50:54.422Z,8.17
2018-05-18T15:53:23.286Z,8.23
2018-05-18T15:55:51.345Z,8.20
2018-05-18T15:58:19.426Z,7.80
2018-05-18T16:00:47.490Z,7.77
2018-05-18T16:03:15.570Z,7.17
2018-05-18T16:05:43.669Z,7.60
2018-05-18T16:08:11.742Z,7.13
2018-05-18T16:10:39.826Z,7.30
2018-05-18T16:13:08.670Z,7.87
2018-05-18T16:15:36.889Z,7.13
2018-05-18T16:18:04.958Z,7.63
2018-05-18T16:20:33.039Z,7.13
2018-05-18T16:23:01.082Z,7.43
2018-05-18T16:25:29.178Z,7.40
2018-05-18T16:27:57.245Z,7.40
2018-05-18T16:30:25.315Z,6.53
2018-05-18T16:32:53.401Z,7.90
2018-05-18T16:35:21.457Z,7.03
2018-05-18T16:37:49.534Z,8.07
2018-05-18T16:40:17.622Z,6.67
2018-05-18T16:42:45.693Z,6.33
2018-05-18T16:45:13.749Z,6.27
2018-05-18T16:47:42.605Z,5.43
2018-05-18T16:50:10.695Z,5.37
2018-05-18T16:52:43.811Z,6.30
2018-05-18T16:55:11.869Z,6.23
2018-05-18T16:57:39.926Z,5.50
2018-05-18T17:00:14.774Z,5.00
2018-05-18T17:02:42.849Z,6.30
2018-05-18T17:05:10.913Z,8.13
2018-05-18T17:07:38.995Z,7.23
2018-05-18T17:10:07.840Z,6.20
2018-05-18T17:12:35.882Z,5.43
2018-05-18T17:15:03.954Z,5.50
2018-05-18T17:17:32.026Z,5.23
2018-05-18T17:20:00.114Z,5.13
2018-05-18T17:22:28.154Z,5.17
2018-05-18T17:24:56.221Z,5.07
2018-05-18T17:27:24.270Z,5.70
2018-05-18T17:29:52.326Z,4.80
2018-05-18T17:32:20.396Z,5.37
2018-05-18T17:34:48.479Z,4.53
2018-05-18T17:37:16.547Z,4.70
2018-05-18T17:39:44.597Z,5.77
2018-05-18T17:42:12.685Z,5.20
2018-05-18T17:44:40.765Z,4.90
2018-05-18T17:47:08.847Z,5.30
2018-05-18T17:49:36.930Z,5.07
2018-05-18T17:52:05.013Z,5.47
2018-05-18T17:54:33.058Z,5.00
2018-05-18T17:57:01.134Z,4.57
2018-05-18T17:59:29.182Z,5.03
2018-05-18T18:01:57.235Z,5.33
2018-05-18T18:04:25.318Z,5.50
2018-05-18T18:06:54.129Z,4.73
2018-05-18T18:09:22.185Z,5.10
2018-05-18T18:11:50.265Z,5.37
2018-05-18T18:14:18.363Z,5.33
2018-05-18T18:16:57.278Z,4.97
2018-05-18T18:19:25.362Z,4.30
2018-05-18T18:21:53.435Z,4.87
2018-05-18T18:24:21.494Z,4.57
2018-05-18T18:26:49.578Z,4.77
2018-05-18T18:29:17.646Z,4.83
2018-05-18T18:31:45.717Z,4.30
2018-05-18T18:34:13.797Z,4.10
2018-05-18T18:36:41.875Z,4.93
2018-05-18T18:39:09.943Z,4.53
2018-05-18T18:41:38.018Z,4.77
2018-05-18T18:44:06.085Z,5.30
2018-05-18T18:46:34.198Z,4.80
2018-05-18T18:49:02.266Z,5.27
2018-05-18T18:51:30.346Z,4.80
2018-05-18T18:53:58.453Z,5.13
2018-05-18T18:56:26.516Z,4.83
2018-05-18T18:58:54.579Z,5.50
2018-05-18T19:01:22.658Z,5.50
2018-05-18T19:03:50.703Z,4.90
2018-05-18T19:06:18.777Z,5.20
2018-05-18T19:08:46.849Z,4.53
2018-05-18T19:11:14.911Z,4.47
2018-05-18T19:13:42.946Z,4.40
2018-05-18T19:16:11.026Z,4.60
2018-05-18T19:18:39.218Z,4.57
2018-05-18T19:21:07.283Z,4.83
2018-05-18T19:23:35.337Z,5.10
2018-05-18T19:26:03.399Z,5.37
2018-05-18T19:28:31.466Z,5.40
2018-05-18T19:30:59.623Z,5.43
2018-05-18T19:33:27.722Z,5.40
2018-05-18T19:35:55.790Z,5.10
2018-05-18T19:38:24.945Z,5.10
2018-05-18T19:40:53.022Z,5.63
2018-05-18T19:43:21.077Z,5.80
2018-05-18T19:45:49.288Z,5.13
2018-05-18T19:48:17.366Z,5.40
2018-05-18T19:50:45.462Z,6.80
2018-05-18T19:53:13.534Z,6.00
2018-05-18T19:55:41.606Z,6.07
2018-05-18T19:58:09.674Z,5.37
2018-05-18T20:00:37.726Z,5.07
2018-05-18T20:03:05.805Z,5.40
2018-05-18T20:05:37.717Z,5.70
2018-05-18T20:08:06.543Z,5.60
2018-05-18T20:10:34.614Z,5.43
2018-05-18T20:13:02.656Z,5.83
2018-05-18T20:15:30.754Z,4.60
2018-05-18T20:17:58.836Z,5.13
2018-05-18T20:20:26.894Z,5.80
2018-05-18T20:23:00.993Z,5.67
2018-05-18T20:25:29.065Z,5.57
2018-05-18T20:27:57.111Z,4.73
2018-05-18T20:30:25.181Z,6.40
2018-05-18T20:32:53.258Z,5.40
2018-05-18T20:35:21.342Z,5.63
2018-05-18T20:37:49.410Z,5.73
2018-05-18T20:40:17.498Z,5.97
2018-05-18T20:42:45.558Z,5.20
2018-05-18T20:45:14.410Z,5.40
2018-05-18T20:47:42.485Z,5.50
2018-05-18T20:50:10.551Z,5.47
2018-05-18T20:52:38.621Z,6.33
2018-05-18T20:55:07.470Z,5.27
2018-05-18T20:57:35.530Z,5.23
2018-05-18T21:00:03.618Z,6.33
2018-05-18T21:02:31.715Z,5.33
2018-05-18T21:04:59.787Z,5.27
2018-05-18T21:07:27.853Z,7.30
2018-05-18T21:09:55.960Z,5.13
2018-05-18T21:12:24.009Z,6.73
2018-05-18T21:14:52.082Z,5.80
2018-05-18T21:17:20.166Z,6.20
2018-05-18T21:19:48.234Z,5.77
2018-05-18T21:22:17.073Z,5.27
2018-05-18T21:24:45.926Z,6.07
2018-05-18T21:27:14.750Z,6.17
2018-05-18T21:29:43.566Z,6.63
2018-05-18T21:32:11.650Z,5.90
2018-05-18T21:34:39.741Z,6.00
2018-05-18T21:37:07.802Z,5.30
2018-05-18T21:39:35.874Z,5.07
2018-05-18T21:42:03.955Z,6.07
2018-05-18T21:44:32.016Z,5.60
2018-05-18T21:47:00.115Z,5.27
2018-05-18T21:49:28.166Z,5.33
2018-05-18T21:51:56.247Z,6.00
2018-05-18T21:54:24.322Z,5.40
2018-05-18T21:56:53.150Z,5.57
2018-05-18T21:59:22.010Z,5.73
2018-05-18T22:01:50.086Z,6.07
2018-05-18T22:04:18.134Z,5.53
2018-05-18T22:06:46.218Z,5.80
2018-05-18T22:09:14.286Z,5.37
2018-05-18T22:11:42.336Z,5.90
2018-05-18T22:14:12.608Z,5.47
2018-05-18T22:16:40.607Z,5.17
2018-05-18T22:19:08.654Z,6.50
2018-05-18T22:21:36.727Z,5.60
2018-05-18T22:24:04.810Z,6.10
2018-05-18T22:26:32.907Z,5.67
2018-05-18T22:29:00.980Z,5.67
2018-05-18T22:31:29.054Z,5.60
2018-05-18T22:33:57.117Z,5.57
2018-05-18T22:36:25.190Z,6.17
2018-05-18T22:38:53.274Z,5.40
2018-05-18T22:41:21.345Z,6.03
2018-05-18T22:43:49.410Z,5.73
2018-05-18T22:46:17.482Z,5.43
2018-05-18T22:48:45.534Z,5.57
2018-05-18T22:51:13.578Z,5.87
2018-05-18T22:53:41.662Z,7.47
2018-05-18T22:56:09.738Z,5.60
2018-05-18T22:58:37.786Z,5.37
2018-05-18T23:01:05.858Z,5.70
2018-05-18T23:03:33.929Z,5.53
2018-05-18T23:06:01.998Z,5.33
2018-05-18T23:08:30.056Z,5.80
2018-05-18T23:11:02.178Z,5.20
2018-05-18T23:13:30.250Z,5.50
2018-05-18T23:15:58.317Z,5.67
2018-05-18T23:18:26.379Z,5.73
2018-05-18T23:20:54.438Z,5.87
2018-05-18T23:23:22.526Z,5.87
2018-05-18T23:25:50.682Z,6.17
2018-05-18T23:28:18.663Z,5.63
2018-05-18T23:30:47.657Z,5.77
2018-05-18T23:33:15.733Z,5.53
2018-05-18T23:35:43.790Z,5.53
2018-05-18T23:38:11.862Z,6.07
2018-05-18T23:40:39.946Z,6.47
2018-05-18T23:43:07.970Z,5.43
2018-05-18T23:45:36.023Z,6.03
2018-05-18T23:48:04.106Z,6.07
2018-05-18T23:50:32.174Z,5.73
2018-05-18T23:53:00.309Z,6.57
2018-05-18T23:55:28.270Z,5.43
2018-05-18T23:57:56.330Z,5.47
